createdAt,value
2023-02-01T00:00:26.514Z,3.20
2023-02-01T00:05:58.510Z,2.90
2023-02-01T00:11:03.013Z,2.40
2023-02-01T00:16:11.111Z,2.10
2023-02-01T00:21:16.622Z,1.30
2023-02-01T00:26:29.111Z,1.50
2023-02-01T00:31:32.826Z,2.00
2023-02-01T00:36:36.475Z,2.00
2023-02-01T00:41:40.096Z,3.10
2023-02-01T00:46:43.848Z,2.70
2023-02-01T00:51:47.330Z,2.20
2023-02-01T00:56:50.950Z,4.20
2023-02-01T01:01:54.511Z,2.80
2023-02-01T01:06:58.185Z,3.80
2023-02-01T01:12:03.849Z,2.80
2023-02-01T01:17:07.263Z,4.00
2023-02-01T01:22:10.878Z,2.80
2023-02-01T01:27:14.394Z,3.00
2023-02-01T01:32:18.114Z,4.10
2023-02-01T01:37:21.637Z,2.20
2023-02-01T01:42:25.658Z,2.30
2023-02-01T01:47:44.537Z,2.10
2023-02-01T01:52:50.816Z,3.30
2023-02-01T01:58:19.117Z,5.50
2023-02-01T02:03:34.606Z,1.90
2023-02-01T02:08:38.429Z,2.90
2023-02-01T02:13:45.840Z,3.50
2023-02-01T02:18:58.161Z,4.50
2023-02-01T02:24:07.729Z,4.60
2023-02-01T02:29:29.970Z,4.40
2023-02-01T02:34:49.665Z,4.90
2023-02-01T02:40:07.947Z,4.50
2023-02-01T02:45:49.561Z,4.60
2023-02-01T02:51:19.980Z,5.00
2023-02-01T02:56:44.809Z,5.60
2023-02-01T03:02:09.001Z,12.50
2023-02-01T03:07:36.781Z,13.40
2023-02-01T03:12:59.045Z,12.30
2023-02-01T03:18:07.160Z,8.10
2023-02-01T03:23:16.211Z,8.30
2023-02-01T03:28:24.337Z,7.80
2023-02-01T03:33:31.302Z,7.00
2023-02-01T03:39:06.280Z,7.20
2023-02-01T03:44:31.399Z,7.80
2023-02-01T03:49:52.149Z,6.20
2023-02-01T03:54:56.460Z,4.60
2023-02-01T04:00:23.453Z,4.80
2023-02-01T04:05:27.240Z,5.40
2023-02-01T04:10:30.680Z,4.40
2023-02-01T04:15:35.896Z,5.20
2023-02-01T04:20:39.535Z,4.70
2023-02-01T04:25:43.149Z,6.30
2023-02-01T04:30:47.700Z,5.60
2023-02-01T04:35:51.321Z,7.00
2023-02-01T04:40:54.930Z,5.80
2023-02-01T04:45:58.579Z,6.10
2023-02-01T04:51:02.055Z,4.60
2023-02-01T04:56:06.734Z,10.40
2023-02-01T05:01:10.345Z,10.70
2023-02-01T05:06:14.041Z,9.80
2023-02-01T05:11:36.293Z,8.00
2023-02-01T05:16:39.911Z,11.80
2023-02-01T05:21:43.526Z,7.20
2023-02-01T05:26:48.330Z,8.10
2023-02-01T05:31:51.884Z,8.10
2023-02-01T05:36:55.713Z,5.90
2023-02-01T05:41:59.228Z,5.90
2023-02-01T05:47:02.745Z,3.70
2023-02-01T05:52:06.666Z,5.00
2023-02-01T05:57:10.084Z,4.30
2023-02-01T06:02:13.904Z,3.90
2023-02-01T06:07:17.631Z,3.70
2023-02-01T06:12:21.041Z,2.30
2023-02-01T06:17:24.561Z,4.60
2023-02-01T06:22:28.175Z,4.40
2023-02-01T06:27:32.096Z,3.90
2023-02-01T06:32:35.713Z,4.80
2023-02-01T06:37:39.556Z,3.10
2023-02-01T06:42:43.052Z,3.30
2023-02-01T06:47:46.773Z,2.90
2023-02-01T06:52:50.186Z,4.40
2023-02-01T06:57:57.491Z,7.70
2023-02-01T07:03:01.429Z,7.30
2023-02-01T07:08:05.442Z,4.30
2023-02-01T07:13:09.170Z,6.40
2023-02-01T07:18:15.450Z,5.20
2023-02-01T07:23:19.064Z,5.30
2023-02-01T07:28:23.703Z,4.20
2023-02-01T07:33:29.266Z,4.30
2023-02-01T07:38:33.011Z,5.40
2023-02-01T07:43:37.235Z,6.60
2023-02-01T07:53:45.407Z,6.40
2023-02-01T07:58:50.535Z,4.50
2023-02-01T08:03:57.023Z,9.80
2023-02-01T08:09:00.947Z,3.90
2023-02-01T08:14:04.890Z,8.30
2023-02-01T08:19:08.497Z,6.70
2023-02-01T08:24:12.205Z,4.80
2023-02-01T08:29:15.926Z,6.20
2023-02-01T08:34:21.794Z,6.30
2023-02-01T08:39:26.493Z,5.80
2023-02-01T08:44:29.957Z,5.30
2023-02-01T08:49:33.569Z,5.60
2023-02-01T08:54:37.495Z,5.60
2023-02-01T08:59:40.910Z,6.20
2023-02-01T09:04:44.634Z,6.20
2023-02-01T09:09:48.142Z,5.70
2023-02-01T09:14:51.696Z,5.90
2023-02-01T09:19:55.489Z,4.30
2023-02-01T09:24:59.124Z,5.70
2023-02-01T09:30:03.706Z,7.20
2023-02-01T09:35:07.765Z,8.40
2023-02-01T09:40:16.620Z,6.40
2023-02-01T09:45:57.113Z,7.00
2023-02-01T09:51:05.961Z,5.80
2023-02-01T09:56:19.437Z,6.00
2023-02-01T10:01:25.862Z,3.80
2023-02-01T10:06:39.418Z,5.90
2023-02-01T10:12:01.691Z,7.70
2023-02-01T10:17:36.519Z,4.70
2023-02-01T10:28:19.289Z,7.30
2023-02-01T10:33:34.699Z,6.70
2023-02-01T10:38:38.194Z,7.40
2023-02-01T10:43:42.682Z,5.50
2023-02-01T10:48:47.282Z,10.80
2023-02-01T10:54:05.331Z,8.10
2023-02-01T10:59:20.932Z,6.70
2023-02-01T11:04:27.566Z,9.00
2023-02-01T11:09:31.547Z,7.50
2023-02-01T11:14:41.925Z,8.50
2023-02-01T11:19:57.219Z,7.80
2023-02-01T11:25:08.919Z,9.10
2023-02-01T11:30:19.562Z,9.50
2023-02-01T11:35:23.555Z,8.70
2023-02-01T11:40:35.130Z,9.10
2023-02-01T11:45:38.959Z,9.70
2023-02-01T11:50:57.421Z,7.00
2023-02-01T11:56:21.623Z,7.60
2023-02-01T12:01:40.040Z,7.50
2023-02-01T12:06:51.285Z,10.00
2023-02-01T12:12:14.878Z,4.90
2023-02-01T12:17:24.326Z,6.30
2023-02-01T12:23:00.826Z,7.90
2023-02-01T12:28:35.252Z,5.60
2023-02-01T12:33:44.614Z,7.40
2023-02-01T12:38:58.362Z,9.10
2023-02-01T12:44:29.626Z,6.10
2023-02-01T12:49:36.125Z,4.20
2023-02-01T12:54:46.901Z,7.10
2023-02-01T13:00:00.862Z,5.30
2023-02-01T13:05:16.968Z,5.40
2023-02-01T13:10:48.133Z,6.80
2023-02-01T13:16:13.702Z,6.60
2023-02-01T13:21:23.016Z,6.60
2023-02-01T13:26:26.510Z,7.10
2023-02-01T13:32:18.567Z,7.00
2023-02-01T13:37:59.686Z,7.40
2023-02-01T13:43:27.980Z,6.60
2023-02-01T13:48:55.871Z,10.10
2023-02-01T13:53:59.404Z,10.70
2023-02-01T13:59:41.093Z,21.90
2023-02-01T14:04:51.213Z,24.70
2023-02-01T14:09:55.910Z,17.60
2023-02-01T14:15:23.193Z,25.80
2023-02-01T14:20:45.050Z,17.00
2023-02-01T14:26:02.977Z,10.10
2023-02-01T14:31:28.957Z,5.80
2023-02-01T14:36:51.585Z,6.60
2023-02-01T14:41:59.421Z,6.40
2023-02-01T14:47:06.502Z,5.30
2023-02-01T14:52:15.856Z,3.70
2023-02-01T14:57:22.745Z,4.90
2023-02-01T15:02:31.306Z,3.50
2023-02-01T15:07:36.023Z,6.60
2023-02-01T15:12:41.994Z,3.70
2023-02-01T15:18:02.124Z,3.70
2023-02-01T15:23:16.579Z,3.40
2023-02-01T15:33:23.678Z,3.60
2023-02-01T15:38:31.705Z,4.70
2023-02-01T15:43:56.364Z,4.60
2023-02-01T15:49:00.024Z,3.80
2023-02-01T15:54:09.669Z,4.80
2023-02-01T15:59:42.626Z,4.10
2023-02-01T16:04:52.017Z,6.60
2023-02-01T16:10:24.585Z,13.70
2023-02-01T16:15:30.972Z,5.90
2023-02-01T16:20:36.519Z,4.50
2023-02-01T16:25:40.652Z,3.90
2023-02-01T16:30:44.191Z,5.80
2023-02-01T16:35:48.501Z,6.20
2023-02-01T16:46:00.391Z,8.80
2023-02-01T16:51:10.216Z,9.10
2023-02-01T16:56:22.688Z,19.80
2023-02-01T17:01:26.647Z,19.00
2023-02-01T17:06:33.672Z,16.30
2023-02-01T17:11:38.937Z,12.50
2023-02-01T17:16:44.100Z,10.90
2023-02-01T17:21:51.867Z,12.80
2023-02-01T17:26:55.854Z,17.00
2023-02-01T17:32:01.542Z,10.90
2023-02-01T17:37:24.550Z,5.60
2023-02-01T17:42:30.434Z,4.30
2023-02-01T17:47:34.345Z,7.00
2023-02-01T17:52:38.063Z,4.70
2023-02-01T17:57:41.990Z,5.30
2023-02-01T18:02:45.899Z,4.10
2023-02-01T18:07:50.045Z,6.70
2023-02-01T18:12:56.240Z,18.60
2023-02-01T18:17:59.841Z,18.40
2023-02-01T18:23:03.472Z,18.70
2023-02-01T18:28:06.972Z,23.60
2023-02-01T18:33:15.327Z,9.10
2023-02-01T18:38:18.928Z,13.30
2023-02-01T18:43:23.256Z,20.70
2023-02-01T18:48:27.081Z,25.80
2023-02-01T18:53:30.628Z,16.90
2023-02-01T18:58:34.214Z,9.20
2023-02-01T19:03:40.234Z,4.60
2023-02-01T19:08:47.910Z,4.80
2023-02-01T19:13:51.837Z,19.40
2023-02-01T19:18:55.246Z,22.20
2023-02-01T19:23:59.577Z,14.90
2023-02-01T19:29:03.088Z,19.00
2023-02-01T19:34:06.712Z,8.60
2023-02-01T19:39:10.948Z,7.60
2023-02-01T19:44:14.895Z,4.90
2023-02-01T19:49:18.480Z,6.30
2023-02-01T19:54:22.469Z,5.00
2023-02-01T19:59:26.435Z,7.40
2023-02-01T20:04:29.084Z,5.70
2023-02-01T20:09:36.700Z,5.30
2023-02-01T20:14:40.638Z,4.90
2023-02-01T20:19:44.767Z,5.70
2023-02-01T20:24:48.130Z,6.50
2023-02-01T20:29:53.174Z,6.30
2023-02-01T20:34:56.590Z,5.50
2023-02-01T20:40:00.211Z,5.90
2023-02-01T20:45:07.728Z,6.70
2023-02-01T20:50:12.039Z,7.80
2023-02-01T20:55:15.687Z,6.80
2023-02-01T21:00:20.101Z,6.20
2023-02-01T21:05:26.043Z,5.60
2023-02-01T21:10:29.717Z,6.20
2023-02-01T21:15:36.719Z,5.90
2023-02-01T21:20:40.541Z,4.50
2023-02-01T21:25:45.179Z,4.90
2023-02-01T21:30:48.648Z,5.20
2023-02-01T21:35:52.726Z,3.50
2023-02-01T21:41:15.680Z,3.80
2023-02-01T21:46:19.944Z,5.00
2023-02-01T21:51:23.548Z,4.60
2023-02-01T21:56:27.883Z,4.70
2023-02-01T22:01:31.552Z,5.20
2023-02-01T22:06:38.098Z,5.90
2023-02-01T22:11:41.500Z,8.00
2023-02-01T22:16:45.475Z,8.00
2023-02-01T22:21:49.147Z,7.50
2023-02-01T22:26:52.709Z,6.60
2023-02-01T22:31:56.951Z,5.40
2023-02-01T22:42:04.122Z,7.70
2023-02-01T22:47:07.841Z,5.10
2023-02-01T22:52:11.347Z,4.50
2023-02-01T22:57:14.958Z,4.70
2023-02-01T23:02:18.651Z,4.70
2023-02-01T23:07:22.297Z,4.40
2023-02-01T23:12:25.909Z,5.20
2023-02-01T23:17:29.423Z,6.70
2023-02-01T23:22:32.935Z,5.50
2023-02-01T23:27:36.550Z,4.50
2023-02-01T23:32:40.065Z,5.00
2023-02-01T23:37:43.684Z,4.70
2023-02-01T23:43:07.174Z,4.40
2023-02-01T23:48:10.682Z,6.40
2023-02-01T23:53:14.301Z,3.70
2023-02-01T23:58:17.818Z,4.90
